createdAt,value
2017-10-25T00:07:37.000Z,71.667
2017-10-25T00:17:37.000Z,71.407
2017-10-25T00:27:37.000Z,71.407
2017-10-25T00:37:38.000Z,71.461
2017-10-25T00:47:37.000Z,71.375
2017-10-25T00:57:37.000Z,71.33
2017-10-25T01:07:37.000Z,71.288
2017-10-25T01:17:37.000Z,71.309
2017-10-25T01:27:37.000Z,71.295
2017-10-25T01:37:37.000Z,71.251
2017-10-25T01:47:37.000Z,71.219
2017-10-25T01:57:37.000Z,71.25
2017-10-25T02:07:37.000Z,71.188
2017-10-25T02:17:37.000Z,71.047
2017-10-25T02:27:37.000Z,71.143
2017-10-25T02:37:40.000Z,71.087
2017-10-25T02:47:37.000Z,71.121
2017-10-25T02:57:37.000Z,70.959
2017-10-25T03:07:37.000Z,71
2017-10-25T03:17:38.000Z,70.99
2017-10-25T03:27:38.000Z,70.936
2017-10-25T03:37:38.000Z,70.828
2017-10-25T03:47:38.000Z,70.849
2017-10-25T03:57:38.000Z,70.806
2017-10-25T04:07:38.000Z,70.739
2017-10-25T04:17:38.000Z,70.838
2017-10-25T04:27:38.000Z,70.754
2017-10-25T04:37:38.000Z,70.751
2017-10-25T04:47:38.000Z,70.633
2017-10-25T04:57:38.000Z,70.578
2017-10-25T05:07:38.000Z,70.48
2017-10-25T05:17:38.000Z,70.384
2017-10-25T05:27:38.000Z,70.319
2017-10-25T05:37:38.000Z,70.369
2017-10-25T05:47:38.000Z,70.252
2017-10-25T05:57:38.000Z,70.155
2017-10-25T06:07:38.000Z,70.155
2017-10-25T06:17:38.000Z,70.039
2017-10-25T06:27:38.000Z,69.964
2017-10-25T06:37:38.000Z,69.954
2017-10-25T06:47:38.000Z,69.856
2017-10-25T06:57:38.000Z,69.815
2017-10-25T07:07:38.000Z,69.741
2017-10-25T07:17:38.000Z,69.645
2017-10-25T07:27:38.000Z,69.444
2017-10-25T07:37:38.000Z,69.372
2017-10-25T07:47:38.000Z,69.162
2017-10-25T07:57:38.000Z,69.099
2017-10-25T08:07:38.000Z,68.912
2017-10-25T08:17:38.000Z,68.713
2017-10-25T08:27:38.000Z,68.546
2017-10-25T08:37:38.000Z,68.202
2017-10-25T08:47:38.000Z,68.025
2017-10-25T08:57:38.000Z,67.701
2017-10-25T09:07:38.000Z,67.714
2017-10-25T09:17:38.000Z,67.491
2017-10-25T09:27:38.000Z,67.567
2017-10-25T09:37:38.000Z,67.578
2017-10-25T09:47:39.000Z,67.606
2017-10-25T09:57:38.000Z,67.645
2017-10-25T10:07:38.000Z,67.634
2017-10-25T10:17:38.000Z,67.654
2017-10-25T10:27:38.000Z,67.315
2017-10-25T10:37:38.000Z,67.276
2017-10-25T10:47:38.000Z,67.244
2017-10-25T10:57:38.000Z,67.284
2017-10-25T11:07:38.000Z,67.345
2017-10-25T11:17:38.000Z,67.333
2017-10-25T11:27:40.000Z,67.407
2017-10-25T11:37:38.000Z,67.331
2017-10-25T11:47:39.000Z,67.184
2017-10-25T12:07:39.000Z,67.204
2017-10-25T12:17:39.000Z,67.172
2017-10-25T12:27:39.000Z,67.17
2017-10-25T12:37:39.000Z,67.17
2017-10-25T12:47:39.000Z,67.149
2017-10-25T12:57:39.000Z,67.138
2017-10-25T13:07:39.000Z,67.168
2017-10-25T13:17:39.000Z,67.23
2017-10-25T13:27:39.000Z,67.315
2017-10-25T13:37:39.000Z,67.417
2017-10-25T13:47:39.000Z,67.394
2017-10-25T13:57:39.000Z,67.477
2017-10-25T14:07:39.000Z,67.456
2017-10-25T14:17:39.000Z,67.441
2017-10-25T14:27:39.000Z,67.411
2017-10-25T14:37:39.000Z,67.409
2017-10-25T14:47:39.000Z,67.429
2017-10-25T14:57:39.000Z,67.532
2017-10-25T15:07:39.000Z,67.458
2017-10-25T15:17:39.000Z,67.497
2017-10-25T15:27:39.000Z,67.411
2017-10-25T15:37:39.000Z,67.475
2017-10-25T15:47:39.000Z,67.462
2017-10-25T15:57:39.000Z,67.417
2017-10-25T16:07:39.000Z,67.523
2017-10-25T16:17:39.000Z,67.533
2017-10-25T16:27:39.000Z,67.509
2017-10-25T16:37:39.000Z,67.509
2017-10-25T16:47:39.000Z,67.569
2017-10-25T16:57:39.000Z,67.602
2017-10-25T17:07:39.000Z,67.61
2017-10-25T17:17:39.000Z,67.639
2017-10-25T17:27:40.000Z,67.618
2017-10-25T17:37:39.000Z,67.596
2017-10-25T17:47:39.000Z,67.635
2017-10-25T17:57:39.000Z,67.644
2017-10-25T18:07:39.000Z,67.581
2017-10-25T18:17:39.000Z,67.688
2017-10-25T18:27:39.000Z,67.744
2017-10-25T18:37:39.000Z,67.806
2017-10-25T18:47:39.000Z,67.803
2017-10-25T18:57:41.000Z,67.867
2017-10-25T19:07:39.000Z,67.948
2017-10-25T19:17:39.000Z,67.85
2017-10-25T19:27:39.000Z,67.86
2017-10-25T19:37:42.000Z,67.892
2017-10-25T19:47:39.000Z,67.868
2017-10-25T19:57:39.000Z,67.908
2017-10-25T20:07:40.000Z,67.886
2017-10-25T20:17:40.000Z,67.854
2017-10-25T20:27:40.000Z,67.862
2017-10-25T20:37:40.000Z,67.893
2017-10-25T20:47:40.000Z,67.881
2017-10-25T20:57:44.000Z,67.902
2017-10-25T21:07:40.000Z,67.922
2017-10-25T21:17:40.000Z,67.856
2017-10-25T21:27:40.000Z,67.887
2017-10-25T21:37:40.000Z,67.866
2017-10-25T21:47:40.000Z,67.951
2017-10-25T21:57:40.000Z,67.911
2017-10-25T22:17:40.000Z,67.907
2017-10-25T22:27:40.000Z,67.916
2017-10-25T22:37:40.000Z,67.903
2017-10-25T22:47:40.000Z,67.947
2017-10-25T22:57:40.000Z,67.932
2017-10-25T23:07:40.000Z,67.984
2017-10-25T23:17:40.000Z,67.984
2017-10-25T23:27:40.000Z,68.013
2017-10-25T23:37:40.000Z,68.034
2017-10-25T23:47:40.000Z,68.075
2017-10-25T23:57:40.000Z,68.02
